Terminal Aerodrome Forecast
Issued by NWS

Current Version | Previous Version | Text Only | Print | Product List | Glossary On
Versions: 1 2 3 4 5 6 7 8 9 10 11 12 13 14
000
FTUS44 KEPZ 310000 AAA
TAFTCS
TAF AMD
KTCS 310016Z 3100/3124 18012G20KT P6SM FEW100 SCT250
     FM310300 25007KT P6SM FEW250
     FM310900 30007KT P6SM FEW250=

USA.gov is the U.S. government's official web portal to all federal, state and local government web resources and services.